Hovedside
METAR-TAF:

METAR-TAF

Lufthavner :

Sandane, Norge

Sandane lufthamn

breddegrad: 61-50N, lengdegrad: 006-07E, høyde over havet: 6 m

Gjeldene værobservasjon

Denne rapporten ble laget for 59 minutter siden, klokken 19:50 UTC
Vind 3 kt fra Øst-nordøst
Temperatur 7°C
Luftfuktighet 93%
Trykk 1026 hPa
Sikt: 5000 m
Spredte skyer i en høyde lavere enn 100 ft
Spredte skyer i en høyde av 1200 ft
lett duskregn, dis

METAR: ENSD 261950Z 06003KT 5000 -DZ BR SCT000 SCT012 VV023 07/06 Q1026 RMK WIND 1138FT 21003KT

Tid: 22:49 (20:49 UTC)


TAF: fraværende

Værobservasjoner og værvarsel for over 4000 flyplasser (METAR- og TAF-rapporter).

Tilgjengelige stasjoner er representert av de røde og gule prikkene på kartet.

Hold musepekeren over prikken for å se navnet på stasjonen.

Klikk så for å se værobservasjoner og -varsler.

For å forandre kartet kan du klikke på den grønne knappen med svart kryss for å zoome inn, på den grønne knappen med strek for å zoome ut, eller på de grønne pilene for å se tilstøtende kart.


METAR-TAF: